sensor_id;sensor_type;location;lat;lon;timestamp;temperature;humidity
45807;DHT22;31507;51.494;7.518;2023-03-13T00:04:00;9.70;99.90
45807;DHT22;31507;51.494;7.518;2023-03-13T00:06:29;9.70;99.90
45807;DHT22;31507;51.494;7.518;2023-03-13T00:08:57;9.70;99.90
45807;DHT22;31507;51.494;7.518;2023-03-13T00:11:25;9.70;99.90
45807;DHT22;31507;51.494;7.518;2023-03-13T00:13:55;9.70;99.90
45807;DHT22;31507;51.494;7.518;2023-03-13T00:16:21;9.80;99.90
45807;DHT22;31507;51.494;7.518;2023-03-13T00:18:48;9.90;99.90
45807;DHT22;31507;51.494;7.518;2023-03-13T00:21:15;9.90;99.90
45807;DHT22;31507;51.494;7.518;2023-03-13T00:23:41;9.80;99.90
45807;DHT22;31507;51.494;7.518;2023-03-13T00:26:10;9.90;99.90
45807;DHT22;31507;51.494;7.518;2023-03-13T00:28:37;9.90;99.90
45807;DHT22;31507;51.494;7.518;2023-03-13T00:33:33;9.90;99.90
45807;DHT22;31507;51.494;7.518;2023-03-13T00:36:05;9.90;99.90
45807;DHT22;31507;51.494;7.518;2023-03-13T00:38:31;10.00;99.90
45807;DHT22;31507;51.494;7.518;2023-03-13T00:41:08;10.00;99.90
45807;DHT22;31507;51.494;7.518;2023-03-13T00:43:37;10.00;99.90
45807;DHT22;31507;51.494;7.518;2023-03-13T00:46:03;10.00;99.90
45807;DHT22;31507;51.494;7.518;2023-03-13T00:48:29;9.90;99.90
45807;DHT22;31507;51.494;7.518;2023-03-13T00:50:55;9.90;99.90
45807;DHT22;31507;51.494;7.518;2023-03-13T00:53:21;9.90;99.90
45807;DHT22;31507;51.494;7.518;2023-03-13T00:55:58;9.90;99.90
45807;DHT22;31507;51.494;7.518;2023-03-13T00:58:26;9.80;99.90
45807;DHT22;31507;51.494;7.518;2023-03-13T01:00:52;9.80;99.90
45807;DHT22;31507;51.494;7.518;2023-03-13T01:03:19;9.80;99.90
45807;DHT22;31507;51.494;7.518;2023-03-13T01:05:55;9.70;99.90
45807;DHT22;31507;51.494;7.518;2023-03-13T01:08:21;9.70;99.90
45807;DHT22;31507;51.494;7.518;2023-03-13T01:10:46;9.70;99.90
45807;DHT22;31507;51.494;7.518;2023-03-13T01:13:12;9.70;99.90
45807;DHT22;31507;51.494;7.518;2023-03-13T01:15:37;9.70;99.90
45807;DHT22;31507;51.494;7.518;2023-03-13T01:18:03;9.60;99.90
45807;DHT22;31507;51.494;7.518;2023-03-13T01:20:29;9.60;99.90
45807;DHT22;31507;51.494;7.518;2023-03-13T01:22:55;9.60;99.90
45807;DHT22;31507;51.494;7.518;2023-03-13T01:25:21;9.60;99.90
45807;DHT22;31507;51.494;7.518;2023-03-13T01:27:47;9.60;99.90
45807;DHT22;31507;51.494;7.518;2023-03-13T01:30:12;9.50;99.90
45807;DHT22;31507;51.494;7.518;2023-03-13T01:32:38;9.50;99.90
45807;DHT22;31507;51.494;7.518;2023-03-13T01:35:04;9.60;99.90
45807;DHT22;31507;51.494;7.518;2023-03-13T01:37:29;9.60;99.90
45807;DHT22;31507;51.494;7.518;2023-03-13T01:39:55;9.50;99.90
45807;DHT22;31507;51.494;7.518;2023-03-13T01:42:20;9.50;99.90
45807;DHT22;31507;51.494;7.518;2023-03-13T01:44:54;9.50;99.90
45807;DHT22;31507;51.494;7.518;2023-03-13T01:47:21;9.50;99.90
45807;DHT22;31507;51.494;7.518;2023-03-13T01:49:48;9.50;99.90
45807;DHT22;31507;51.494;7.518;2023-03-13T01:52:21;9.50;99.90
45807;DHT22;31507;51.494;7.518;2023-03-13T01:55:13;9.60;99.90
45807;DHT22;31507;51.494;7.518;2023-03-13T01:57:45;9.50;99.90
45807;DHT22;31507;51.494;7.518;2023-03-13T02:02:48;9.30;99.90
45807;DHT22;31507;51.494;7.518;2023-03-13T02:05:15;9.30;99.90
45807;DHT22;31507;51.494;7.518;2023-03-13T02:10:12;9.40;99.90
45807;DHT22;31507;51.494;7.518;2023-03-13T02:12:40;9.40;99.90
45807;DHT22;31507;51.494;7.518;2023-03-13T02:15:09;9.40;99.90
45807;DHT22;31507;51.494;7.518;2023-03-13T02:17:37;9.30;99.90
45807;DHT22;31507;51.494;7.518;2023-03-13T02:20:04;9.20;99.90
45807;DHT22;31507;51.494;7.518;2023-03-13T02:28:09;9.00;99.90
45807;DHT22;31507;51.494;7.518;2023-03-13T02:30:36;9.00;99.90
45807;DHT22;31507;51.494;7.518;2023-03-13T02:33:03;9.00;99.90
45807;DHT22;31507;51.494;7.518;2023-03-13T02:35:29;9.00;99.90
45807;DHT22;31507;51.494;7.518;2023-03-13T02:37:59;8.90;99.90
45807;DHT22;31507;51.494;7.518;2023-03-13T02:40:34;8.90;99.90
45807;DHT22;31507;51.494;7.518;2023-03-13T02:43:02;8.90;99.90
45807;DHT22;31507;51.494;7.518;2023-03-13T02:45:29;8.80;99.90
45807;DHT22;31507;51.494;7.518;2023-03-13T02:47:54;8.80;99.90
45807;DHT22;31507;51.494;7.518;2023-03-13T02:50:20;8.90;99.90
45807;DHT22;31507;51.494;7.518;2023-03-13T02:52:52;8.90;99.90
45807;DHT22;31507;51.494;7.518;2023-03-13T02:55:25;8.90;99.90
45807;DHT22;31507;51.494;7.518;2023-03-13T02:57:52;8.90;99.90
45807;DHT22;31507;51.494;7.518;2023-03-13T03:00:18;8.90;99.90
45807;DHT22;31507;51.494;7.518;2023-03-13T03:02:45;8.90;99.90
45807;DHT22;31507;51.494;7.518;2023-03-13T03:05:11;8.90;99.90
45807;DHT22;31507;51.494;7.518;2023-03-13T03:07:37;9.00;99.90
45807;DHT22;31507;51.494;7.518;2023-03-13T03:10:03;9.00;99.90
45807;DHT22;31507;51.494;7.518;2023-03-13T03:12:29;9.10;99.90
45807;DHT22;31507;51.494;7.518;2023-03-13T03:14:54;9.10;99.90
45807;DHT22;31507;51.494;7.518;2023-03-13T03:17:20;9.10;99.90
45807;DHT22;31507;51.494;7.518;2023-03-13T03:19:46;9.10;99.90
45807;DHT22;31507;51.494;7.518;2023-03-13T03:22:11;9.20;99.90
45807;DHT22;31507;51.494;7.518;2023-03-13T03:24:37;9.20;99.90
45807;DHT22;31507;51.494;7.518;2023-03-13T03:27:03;9.30;99.90
45807;DHT22;31507;51.494;7.518;2023-03-13T03:29:28;9.20;99.90
45807;DHT22;31507;51.494;7.518;2023-03-13T03:31:54;9.30;99.90
45807;DHT22;31507;51.494;7.518;2023-03-13T03:34:20;9.20;99.90
45807;DHT22;31507;51.494;7.518;2023-03-13T03:36:45;9.20;99.90
45807;DHT22;31507;51.494;7.518;2023-03-13T03:39:11;9.20;99.90
45807;DHT22;31507;51.494;7.518;2023-03-13T03:41:36;9.20;99.90
45807;DHT22;31507;51.494;7.518;2023-03-13T03:44:03;9.30;99.90
45807;DHT22;31507;51.494;7.518;2023-03-13T03:46:29;9.30;99.90
45807;DHT22;31507;51.494;7.518;2023-03-13T03:48:54;9.30;99.90
45807;DHT22;31507;51.494;7.518;2023-03-13T03:51:21;9.30;99.90
45807;DHT22;31507;51.494;7.518;2023-03-13T03:53:47;9.30;99.90
45807;DHT22;31507;51.494;7.518;2023-03-13T03:56:13;9.30;99.90
45807;DHT22;31507;51.494;7.518;2023-03-13T03:58:39;9.30;99.90
45807;DHT22;31507;51.494;7.518;2023-03-13T04:01:04;9.40;99.90
45807;DHT22;31507;51.494;7.518;2023-03-13T04:03:30;9.40;99.90
45807;DHT22;31507;51.494;7.518;2023-03-13T04:05:56;9.40;99.90
45807;DHT22;31507;51.494;7.518;2023-03-13T04:08:21;9.50;99.90
45807;DHT22;31507;51.494;7.518;2023-03-13T04:10:47;9.60;99.90
45807;DHT22;31507;51.494;7.518;2023-03-13T04:13:13;9.70;99.90
45807;DHT22;31507;51.494;7.518;2023-03-13T04:15:39;9.70;99.90
45807;DHT22;31507;51.494;7.518;2023-03-13T04:18:05;9.80;99.90
45807;DHT22;31507;51.494;7.518;2023-03-13T04:20:31;9.80;99.90
45807;DHT22;31507;51.494;7.518;2023-03-13T04:22:56;9.90;99.90
45807;DHT22;31507;51.494;7.518;2023-03-13T04:25:22;10.00;99.90
45807;DHT22;31507;51.494;7.518;2023-03-13T04:27:48;10.00;99.90
45807;DHT22;31507;51.494;7.518;2023-03-13T04:30:13;10.10;99.90
45807;DHT22;31507;51.494;7.518;2023-03-13T04:32:39;10.10;99.90
45807;DHT22;31507;51.494;7.518;2023-03-13T04:35:05;10.00;99.90
45807;DHT22;31507;51.494;7.518;2023-03-13T04:37:31;10.10;99.90
45807;DHT22;31507;51.494;7.518;2023-03-13T04:39:57;10.00;99.90
45807;DHT22;31507;51.494;7.518;2023-03-13T04:42:22;10.00;99.90
45807;DHT22;31507;51.494;7.518;2023-03-13T04:44:48;10.00;99.90
45807;DHT22;31507;51.494;7.518;2023-03-13T04:47:13;9.90;99.90
45807;DHT22;31507;51.494;7.518;2023-03-13T04:49:39;9.90;99.90
45807;DHT22;31507;51.494;7.518;2023-03-13T04:52:05;10.00;99.90
45807;DHT22;31507;51.494;7.518;2023-03-13T04:54:31;10.00;99.90
45807;DHT22;31507;51.494;7.518;2023-03-13T04:56:56;10.00;99.90
45807;DHT22;31507;51.494;7.518;2023-03-13T04:59:22;10.00;99.90
45807;DHT22;31507;51.494;7.518;2023-03-13T05:01:48;10.00;99.90
45807;DHT22;31507;51.494;7.518;2023-03-13T05:04:13;10.00;99.90
45807;DHT22;31507;51.494;7.518;2023-03-13T05:06:39;10.00;99.90
45807;DHT22;31507;51.494;7.518;2023-03-13T05:09:05;10.00;99.90
45807;DHT22;31507;51.494;7.518;2023-03-13T05:11:30;10.00;99.90
45807;DHT22;31507;51.494;7.518;2023-03-13T05:13:56;10.00;99.90
45807;DHT22;31507;51.494;7.518;2023-03-13T05:16:22;10.10;99.90
45807;DHT22;31507;51.494;7.518;2023-03-13T05:18:47;10.10;99.90
45807;DHT22;31507;51.494;7.518;2023-03-13T05:21:13;10.20;99.90
45807;DHT22;31507;51.494;7.518;2023-03-13T05:23:39;10.30;99.90
45807;DHT22;31507;51.494;7.518;2023-03-13T05:26:04;10.30;99.90
45807;DHT22;31507;51.494;7.518;2023-03-13T05:28:30;10.40;99.90
45807;DHT22;31507;51.494;7.518;2023-03-13T05:30:56;10.40;99.90
45807;DHT22;31507;51.494;7.518;2023-03-13T05:33:21;10.40;99.90
45807;DHT22;31507;51.494;7.518;2023-03-13T05:35:47;10.50;99.90
45807;DHT22;31507;51.494;7.518;2023-03-13T05:38:13;10.50;99.90
45807;DHT22;31507;51.494;7.518;2023-03-13T05:40:39;10.50;99.90
45807;DHT22;31507;51.494;7.518;2023-03-13T05:43:04;10.60;99.90
45807;DHT22;31507;51.494;7.518;2023-03-13T05:45:30;10.60;99.90
45807;DHT22;31507;51.494;7.518;2023-03-13T05:47:55;10.60;99.90
45807;DHT22;31507;51.494;7.518;2023-03-13T05:50:23;10.60;99.90
45807;DHT22;31507;51.494;7.518;2023-03-13T05:52:49;10.60;99.90
45807;DHT22;31507;51.494;7.518;2023-03-13T05:55:15;10.60;99.90
45807;DHT22;31507;51.494;7.518;2023-03-13T05:57:44;10.60;99.90
45807;DHT22;31507;51.494;7.518;2023-03-13T06:00:10;10.60;99.90
45807;DHT22;31507;51.494;7.518;2023-03-13T06:02:36;10.60;99.90
45807;DHT22;31507;51.494;7.518;2023-03-13T06:05:02;10.60;99.90
45807;DHT22;31507;51.494;7.518;2023-03-13T06:07:27;10.60;99.90
45807;DHT22;31507;51.494;7.518;2023-03-13T06:09:53;10.60;99.90
45807;DHT22;31507;51.494;7.518;2023-03-13T06:12:18;10.60;99.90
45807;DHT22;31507;51.494;7.518;2023-03-13T06:14:44;10.60;99.90
45807;DHT22;31507;51.494;7.518;2023-03-13T06:17:10;10.60;99.90
45807;DHT22;31507;51.494;7.518;2023-03-13T06:19:35;10.60;99.90
45807;DHT22;31507;51.494;7.518;2023-03-13T06:22:01;10.60;99.90
45807;DHT22;31507;51.494;7.518;2023-03-13T06:24:26;10.70;99.90
45807;DHT22;31507;51.494;7.518;2023-03-13T06:26:52;10.80;99.90
45807;DHT22;31507;51.494;7.518;2023-03-13T06:29:18;10.90;99.90
45807;DHT22;31507;51.494;7.518;2023-03-13T06:31:43;11.00;99.90
45807;DHT22;31507;51.494;7.518;2023-03-13T06:34:10;11.10;99.90
45807;DHT22;31507;51.494;7.518;2023-03-13T06:36:36;11.20;99.90
45807;DHT22;31507;51.494;7.518;2023-03-13T06:39:03;11.30;99.90
45807;DHT22;31507;51.494;7.518;2023-03-13T06:41:29;11.30;99.90
45807;DHT22;31507;51.494;7.518;2023-03-13T06:43:54;11.40;99.90
45807;DHT22;31507;51.494;7.518;2023-03-13T06:46:22;11.50;99.90
45807;DHT22;31507;51.494;7.518;2023-03-13T06:48:48;11.50;99.90
45807;DHT22;31507;51.494;7.518;2023-03-13T06:51:16;11.60;99.90
45807;DHT22;31507;51.494;7.518;2023-03-13T06:53:42;11.70;99.90
45807;DHT22;31507;51.494;7.518;2023-03-13T06:56:08;11.80;99.90
45807;DHT22;31507;51.494;7.518;2023-03-13T06:58:34;11.80;99.90
45807;DHT22;31507;51.494;7.518;2023-03-13T07:01:11;11.90;99.90
45807;DHT22;31507;51.494;7.518;2023-03-13T07:03:37;11.90;99.90
45807;DHT22;31507;51.494;7.518;2023-03-13T07:06:04;12.00;99.90
45807;DHT22;31507;51.494;7.518;2023-03-13T07:08:31;12.10;99.90
45807;DHT22;31507;51.494;7.518;2023-03-13T07:11:00;12.20;99.90
45807;DHT22;31507;51.494;7.518;2023-03-13T07:13:25;12.20;99.90
45807;DHT22;31507;51.494;7.518;2023-03-13T07:15:52;12.30;99.90
45807;DHT22;31507;51.494;7.518;2023-03-13T07:18:18;12.40;99.90
45807;DHT22;31507;51.494;7.518;2023-03-13T07:20:44;12.40;99.90
45807;DHT22;31507;51.494;7.518;2023-03-13T07:23:09;12.50;99.90
45807;DHT22;31507;51.494;7.518;2023-03-13T07:25:35;12.50;99.90
45807;DHT22;31507;51.494;7.518;2023-03-13T07:28:01;12.50;99.90
45807;DHT22;31507;51.494;7.518;2023-03-13T07:30:27;12.50;99.90
45807;DHT22;31507;51.494;7.518;2023-03-13T07:32:53;12.60;99.90
45807;DHT22;31507;51.494;7.518;2023-03-13T07:35:18;12.70;99.90
45807;DHT22;31507;51.494;7.518;2023-03-13T07:37:44;12.70;99.90
45807;DHT22;31507;51.494;7.518;2023-03-13T07:40:10;12.80;99.90
45807;DHT22;31507;51.494;7.518;2023-03-13T07:42:39;12.80;99.90
45807;DHT22;31507;51.494;7.518;2023-03-13T07:45:05;12.90;99.90
45807;DHT22;31507;51.494;7.518;2023-03-13T07:47:33;12.90;99.90
45807;DHT22;31507;51.494;7.518;2023-03-13T07:49:59;12.90;99.90
45807;DHT22;31507;51.494;7.518;2023-03-13T07:52:24;13.00;99.90
45807;DHT22;31507;51.494;7.518;2023-03-13T07:54:52;13.00;99.90
45807;DHT22;31507;51.494;7.518;2023-03-13T07:57:18;13.10;99.90
45807;DHT22;31507;51.494;7.518;2023-03-13T07:59:43;13.10;99.90
45807;DHT22;31507;51.494;7.518;2023-03-13T08:02:11;13.20;99.90
45807;DHT22;31507;51.494;7.518;2023-03-13T08:04:38;13.20;99.90
45807;DHT22;31507;51.494;7.518;2023-03-13T08:07:10;13.20;99.90
45807;DHT22;31507;51.494;7.518;2023-03-13T08:09:36;13.20;99.90
45807;DHT22;31507;51.494;7.518;2023-03-13T08:12:02;13.20;99.90
45807;DHT22;31507;51.494;7.518;2023-03-13T08:14:27;13.20;99.90
45807;DHT22;31507;51.494;7.518;2023-03-13T08:16:53;13.20;99.90
45807;DHT22;31507;51.494;7.518;2023-03-13T08:19:19;13.20;99.90
45807;DHT22;31507;51.494;7.518;2023-03-13T08:21:44;13.20;99.90
45807;DHT22;31507;51.494;7.518;2023-03-13T08:24:11;13.20;99.90
45807;DHT22;31507;51.494;7.518;2023-03-13T08:26:39;13.30;99.90
45807;DHT22;31507;51.494;7.518;2023-03-13T08:29:10;13.30;99.90
45807;DHT22;31507;51.494;7.518;2023-03-13T08:31:47;13.40;99.90
45807;DHT22;31507;51.494;7.518;2023-03-13T08:34:14;13.40;99.90
45807;DHT22;31507;51.494;7.518;2023-03-13T08:36:40;13.40;99.90
45807;DHT22;31507;51.494;7.518;2023-03-13T08:39:11;13.40;99.90
45807;DHT22;31507;51.494;7.518;2023-03-13T08:41:37;13.50;99.90
45807;DHT22;31507;51.494;7.518;2023-03-13T08:44:05;13.40;99.90
45807;DHT22;31507;51.494;7.518;2023-03-13T08:46:33;13.50;99.90
45807;DHT22;31507;51.494;7.518;2023-03-13T08:48:59;13.50;99.90
45807;DHT22;31507;51.494;7.518;2023-03-13T08:51:27;13.50;99.90
45807;DHT22;31507;51.494;7.518;2023-03-13T08:53:54;13.50;99.90
45807;DHT22;31507;51.494;7.518;2023-03-13T08:56:22;13.50;99.90
45807;DHT22;31507;51.494;7.518;2023-03-13T08:58:53;13.50;99.90
45807;DHT22;31507;51.494;7.518;2023-03-13T09:01:21;13.50;99.90
45807;DHT22;31507;51.494;7.518;2023-03-13T09:03:47;13.50;99.90
45807;DHT22;31507;51.494;7.518;2023-03-13T09:06:13;13.50;99.90
45807;DHT22;31507;51.494;7.518;2023-03-13T09:08:39;13.40;99.90
45807;DHT22;31507;51.494;7.518;2023-03-13T09:11:08;13.50;99.90
45807;DHT22;31507;51.494;7.518;2023-03-13T09:13:37;13.50;99.90
45807;DHT22;31507;51.494;7.518;2023-03-13T09:16:09;13.40;99.90
45807;DHT22;31507;51.494;7.518;2023-03-13T09:18:35;13.40;99.90
45807;DHT22;31507;51.494;7.518;2023-03-13T09:21:01;13.40;99.90
45807;DHT22;31507;51.494;7.518;2023-03-13T09:23:28;13.30;99.90
45807;DHT22;31507;51.494;7.518;2023-03-13T09:25:56;13.40;99.90
45807;DHT22;31507;51.494;7.518;2023-03-13T09:28:23;13.50;99.90
45807;DHT22;31507;51.494;7.518;2023-03-13T09:30:49;13.50;99.90
45807;DHT22;31507;51.494;7.518;2023-03-13T09:33:19;13.60;99.90
45807;DHT22;31507;51.494;7.518;2023-03-13T09:35:45;13.80;99.90
45807;DHT22;31507;51.494;7.518;2023-03-13T09:38:16;14.20;99.90
45807;DHT22;31507;51.494;7.518;2023-03-13T09:40:45;14.50;99.90
45807;DHT22;31507;51.494;7.518;2023-03-13T09:52:12;14.60;99.90
45807;DHT22;31507;51.494;7.518;2023-03-13T09:57:13;14.40;99.90
45807;DHT22;31507;51.494;7.518;2023-03-13T09:59:42;14.20;99.90
45807;DHT22;31507;51.494;7.518;2023-03-13T10:02:32;14.10;99.90
45807;DHT22;31507;51.494;7.518;2023-03-13T10:05:21;14.10;99.90
45807;DHT22;31507;51.494;7.518;2023-03-13T10:07:47;14.10;99.90
45807;DHT22;31507;51.494;7.518;2023-03-13T10:10:19;14.30;99.90
45807;DHT22;31507;51.494;7.518;2023-03-13T10:12:48;14.60;99.90
45807;DHT22;31507;51.494;7.518;2023-03-13T10:15:32;14.90;99.90
45807;DHT22;31507;51.494;7.518;2023-03-13T10:18:24;14.90;99.90
45807;DHT22;31507;51.494;7.518;2023-03-13T10:20:52;14.90;99.90
45807;DHT22;31507;51.494;7.518;2023-03-13T10:23:40;14.80;99.90
45807;DHT22;31507;51.494;7.518;2023-03-13T10:26:36;14.70;99.90
45807;DHT22;31507;51.494;7.518;2023-03-13T10:31:50;15.00;99.90
45807;DHT22;31507;51.494;7.518;2023-03-13T10:34:17;15.30;99.90
45807;DHT22;31507;51.494;7.518;2023-03-13T10:36:45;15.50;99.90
45807;DHT22;31507;51.494;7.518;2023-03-13T10:39:20;16.20;99.90
45807;DHT22;31507;51.494;7.518;2023-03-13T10:41:48;16.50;99.90
45807;DHT22;31507;51.494;7.518;2023-03-13T10:44:21;16.60;99.90
45807;DHT22;31507;51.494;7.518;2023-03-13T10:46:50;16.50;99.90
45807;DHT22;31507;51.494;7.518;2023-03-13T10:49:22;16.30;99.90
45807;DHT22;31507;51.494;7.518;2023-03-13T10:51:54;16.20;99.90
45807;DHT22;31507;51.494;7.518;2023-03-13T10:54:34;16.10;99.90
45807;DHT22;31507;51.494;7.518;2023-03-13T10:59:47;15.80;99.90
45807;DHT22;31507;51.494;7.518;2023-03-13T11:02:31;15.80;99.90
45807;DHT22;31507;51.494;7.518;2023-03-13T11:04:58;15.70;99.90
45807;DHT22;31507;51.494;7.518;2023-03-13T11:07:35;15.70;99.90
45807;DHT22;31507;51.494;7.518;2023-03-13T11:12:48;15.80;99.90
45807;DHT22;31507;51.494;7.518;2023-03-13T11:15:19;16.00;99.90
45807;DHT22;31507;51.494;7.518;2023-03-13T11:18:01;16.40;99.90
45807;DHT22;31507;51.494;7.518;2023-03-13T11:20:34;16.60;99.90
45807;DHT22;31507;51.494;7.518;2023-03-13T11:29:12;16.60;99.90
45807;DHT22;31507;51.494;7.518;2023-03-13T11:31:43;16.80;99.90
45807;DHT22;31507;51.494;7.518;2023-03-13T11:37:10;16.70;99.90
45807;DHT22;31507;51.494;7.518;2023-03-13T11:42:45;16.60;99.90
45807;DHT22;31507;51.494;7.518;2023-03-13T11:45:36;16.50;99.90
45807;DHT22;31507;51.494;7.518;2023-03-13T11:50:59;16.60;99.90
45807;DHT22;31507;51.494;7.518;2023-03-13T11:53:40;16.80;99.90
45807;DHT22;31507;51.494;7.518;2023-03-13T11:56:14;16.80;99.90
45807;DHT22;31507;51.494;7.518;2023-03-13T12:01:39;17.00;99.80
45807;DHT22;31507;51.494;7.518;2023-03-13T12:07:05;16.90;99.90
45807;DHT22;31507;51.494;7.518;2023-03-13T12:09:41;17.20;99.90
45807;DHT22;31507;51.494;7.518;2023-03-13T12:12:17;17.40;99.90
45807;DHT22;31507;51.494;7.518;2023-03-13T12:14:57;17.40;98.60
45807;DHT22;31507;51.494;7.518;2023-03-13T12:17:39;17.50;98.40
45807;DHT22;31507;51.494;7.518;2023-03-13T12:26:19;17.30;97.00
45807;DHT22;31507;51.494;7.518;2023-03-13T12:29:10;17.30;97.90
45807;DHT22;31507;51.494;7.518;2023-03-13T12:31:41;17.70;98.20
45807;DHT22;31507;51.494;7.518;2023-03-13T12:34:22;17.70;97.40
45807;DHT22;31507;51.494;7.518;2023-03-13T12:42:40;17.00;97.10
45807;DHT22;31507;51.494;7.518;2023-03-13T12:45:15;17.40;97.40
45807;DHT22;31507;51.494;7.518;2023-03-13T12:50:46;17.30;95.60
45807;DHT22;31507;51.494;7.518;2023-03-13T13:01:06;17.50;96.50
45807;DHT22;31507;51.494;7.518;2023-03-13T13:03:56;17.50;97.10
45807;DHT22;31507;51.494;7.518;2023-03-13T13:06:23;17.80;96.80
45807;DHT22;31507;51.494;7.518;2023-03-13T13:16:40;17.10;97.00
45807;DHT22;31507;51.494;7.518;2023-03-13T13:30:40;16.80;97.40
45807;DHT22;31507;51.494;7.518;2023-03-13T13:41:37;16.80;96.60
45807;DHT22;31507;51.494;7.518;2023-03-13T13:44:23;16.80;96.70
45807;DHT22;31507;51.494;7.518;2023-03-13T13:46:49;16.90;96.30
45807;DHT22;31507;51.494;7.518;2023-03-13T13:49:28;16.80;96.60
45807;DHT22;31507;51.494;7.518;2023-03-13T13:57:26;16.80;97.00
45807;DHT22;31507;51.494;7.518;2023-03-13T14:00:26;16.80;96.90
45807;DHT22;31507;51.494;7.518;2023-03-13T14:02:57;16.80;96.60
45807;DHT22;31507;51.494;7.518;2023-03-13T14:05:27;16.80;96.60
45807;DHT22;31507;51.494;7.518;2023-03-13T14:08:07;16.80;96.50
45807;DHT22;31507;51.494;7.518;2023-03-13T14:10:44;16.80;96.30
45807;DHT22;31507;51.494;7.518;2023-03-13T14:13:20;16.80;95.90
45807;DHT22;31507;51.494;7.518;2023-03-13T14:15:47;16.80;96.00
45807;DHT22;31507;51.494;7.518;2023-03-13T14:18:26;16.80;96.00
45807;DHT22;31507;51.494;7.518;2023-03-13T14:23:41;16.70;96.40
45807;DHT22;31507;51.494;7.518;2023-03-13T14:28:41;16.70;96.90
45807;DHT22;31507;51.494;7.518;2023-03-13T14:31:08;16.50;97.00
45807;DHT22;31507;51.494;7.518;2023-03-13T14:33:34;16.40;97.10
45807;DHT22;31507;51.494;7.518;2023-03-13T14:36:01;16.40;97.40
45807;DHT22;31507;51.494;7.518;2023-03-13T14:38:28;16.40;97.30
45807;DHT22;31507;51.494;7.518;2023-03-13T14:40:57;16.40;97.20
45807;DHT22;31507;51.494;7.518;2023-03-13T14:43:31;16.40;97.20
45807;DHT22;31507;51.494;7.518;2023-03-13T14:45:58;16.40;97.10
45807;DHT22;31507;51.494;7.518;2023-03-13T14:48:32;16.40;97.10
45807;DHT22;31507;51.494;7.518;2023-03-13T14:51:20;16.40;97.10
45807;DHT22;31507;51.494;7.518;2023-03-13T14:53:58;16.40;97.10
45807;DHT22;31507;51.494;7.518;2023-03-13T14:56:38;16.40;97.40
45807;DHT22;31507;51.494;7.518;2023-03-13T15:01:39;16.40;97.90
45807;DHT22;31507;51.494;7.518;2023-03-13T15:04:05;16.30;97.90
45807;DHT22;31507;51.494;7.518;2023-03-13T15:06:30;16.20;97.90
45807;DHT22;31507;51.494;7.518;2023-03-13T15:11:38;16.10;98.70
45807;DHT22;31507;51.494;7.518;2023-03-13T15:14:36;16.10;99.00
45807;DHT22;31507;51.494;7.518;2023-03-13T15:17:02;16.00;99.40
45807;DHT22;31507;51.494;7.518;2023-03-13T15:19:30;15.90;99.60
45807;DHT22;31507;51.494;7.518;2023-03-13T15:21:56;15.90;99.70
45807;DHT22;31507;51.494;7.518;2023-03-13T15:24:21;15.90;99.80
45807;DHT22;31507;51.494;7.518;2023-03-13T15:26:47;15.80;99.90
45807;DHT22;31507;51.494;7.518;2023-03-13T15:29:13;15.90;99.90
45807;DHT22;31507;51.494;7.518;2023-03-13T15:31:38;15.90;99.90
45807;DHT22;31507;51.494;7.518;2023-03-13T15:34:12;15.80;99.70
45807;DHT22;31507;51.494;7.518;2023-03-13T15:36:38;15.80;99.90
45807;DHT22;31507;51.494;7.518;2023-03-13T15:39:12;15.80;99.90
45807;DHT22;31507;51.494;7.518;2023-03-13T15:41:38;15.80;99.90
45807;DHT22;31507;51.494;7.518;2023-03-13T15:44:04;15.80;99.90
45807;DHT22;31507;51.494;7.518;2023-03-13T15:46:29;15.70;98.80
45807;DHT22;31507;51.494;7.518;2023-03-13T15:48:55;15.70;98.70
45807;DHT22;31507;51.494;7.518;2023-03-13T15:51:21;15.60;98.50
45807;DHT22;31507;51.494;7.518;2023-03-13T15:53:46;15.60;98.80
45807;DHT22;31507;51.494;7.518;2023-03-13T15:56:17;15.60;98.50
45807;DHT22;31507;51.494;7.518;2023-03-13T15:58:45;15.50;98.20
45807;DHT22;31507;51.494;7.518;2023-03-13T16:01:13;15.50;97.90
45807;DHT22;31507;51.494;7.518;2023-03-13T16:03:40;15.80;97.60
45807;DHT22;31507;51.494;7.518;2023-03-13T16:06:16;15.90;97.30
45807;DHT22;31507;51.494;7.518;2023-03-13T16:08:43;16.30;96.20
45807;DHT22;31507;51.494;7.518;2023-03-13T16:11:14;16.50;95.60
45807;DHT22;31507;51.494;7.518;2023-03-13T16:13:40;16.60;94.60
45807;DHT22;31507;51.494;7.518;2023-03-13T16:16:30;16.70;94.50
45807;DHT22;31507;51.494;7.518;2023-03-13T16:18:57;16.60;94.40
45807;DHT22;31507;51.494;7.518;2023-03-13T16:21:26;16.50;94.80
45807;DHT22;31507;51.494;7.518;2023-03-13T16:23:52;16.30;95.10
45807;DHT22;31507;51.494;7.518;2023-03-13T16:26:24;16.20;95.30
45807;DHT22;31507;51.494;7.518;2023-03-13T16:28:51;16.00;95.80
45807;DHT22;31507;51.494;7.518;2023-03-13T16:31:23;15.80;95.80
45807;DHT22;31507;51.494;7.518;2023-03-13T16:33:50;15.60;95.80
45807;DHT22;31507;51.494;7.518;2023-03-13T16:36:28;15.50;96.10
45807;DHT22;31507;51.494;7.518;2023-03-13T16:38:56;15.40;96.50
45807;DHT22;31507;51.494;7.518;2023-03-13T16:41:24;15.30;96.90
45807;DHT22;31507;51.494;7.518;2023-03-13T16:43:50;15.20;97.60
45807;DHT22;31507;51.494;7.518;2023-03-13T16:46:21;15.10;98.00
45807;DHT22;31507;51.494;7.518;2023-03-13T16:48:48;15.00;99.30
45807;DHT22;31507;51.494;7.518;2023-03-13T16:51:19;14.90;99.80
45807;DHT22;31507;51.494;7.518;2023-03-13T16:53:47;14.80;99.90
45807;DHT22;31507;51.494;7.518;2023-03-13T16:56:28;14.70;99.90
45807;DHT22;31507;51.494;7.518;2023-03-13T16:58:54;14.60;99.90
45807;DHT22;31507;51.494;7.518;2023-03-13T17:01:21;14.60;99.90
45807;DHT22;31507;51.494;7.518;2023-03-13T17:03:49;14.50;99.90
45807;DHT22;31507;51.494;7.518;2023-03-13T17:06:21;14.40;99.90
45807;DHT22;31507;51.494;7.518;2023-03-13T17:08:47;14.40;99.90
45807;DHT22;31507;51.494;7.518;2023-03-13T17:11:14;14.30;99.90
45807;DHT22;31507;51.494;7.518;2023-03-13T17:13:42;14.30;99.90
45807;DHT22;31507;51.494;7.518;2023-03-13T17:16:14;14.10;99.90
45807;DHT22;31507;51.494;7.518;2023-03-13T17:18:41;14.10;99.90
45807;DHT22;31507;51.494;7.518;2023-03-13T17:21:13;14.00;99.90
45807;DHT22;31507;51.494;7.518;2023-03-13T17:23:40;14.00;99.90
45807;DHT22;31507;51.494;7.518;2023-03-13T17:26:22;13.90;99.90
45807;DHT22;31507;51.494;7.518;2023-03-13T17:28:50;13.90;99.90
45807;DHT22;31507;51.494;7.518;2023-03-13T17:31:17;13.90;99.90
45807;DHT22;31507;51.494;7.518;2023-03-13T17:33:43;13.90;99.90
45807;DHT22;31507;51.494;7.518;2023-03-13T17:36:22;13.90;99.90
45807;DHT22;31507;51.494;7.518;2023-03-13T17:38:51;14.10;99.90
45807;DHT22;31507;51.494;7.518;2023-03-13T17:41:19;14.00;99.90
45807;DHT22;31507;51.494;7.518;2023-03-13T17:43:45;14.00;99.90
45807;DHT22;31507;51.494;7.518;2023-03-13T17:46:23;13.90;99.90
45807;DHT22;31507;51.494;7.518;2023-03-13T17:48:51;13.90;99.90